Time;durP1;ratioP1;P1;durP2;ratioP2;P2;SDS_P1;SDS_P2;PMS_P1;PMS_P2;Temp;Humidity;BMP_temperature;BMP_pressure;BME280_temperature;BME280_humidity;BME280_pressure;Samples;Min_cycle;Max_cycle;Signal;HPM_P1;HPM_P2
2022/06/17 00:00:56;;;;;;;2.58;1.63;;;18.30;91.30;;;18.75;63.05;101734.88;5133464;29;20048;-81
2022/06/17 00:03:31;;;;;;;1.65;1.52;;;18.30;91.60;;;18.69;63.04;101733.03;5131874;29;20115;-82
2022/06/17 00:06:06;;;;;;;2.75;1.80;;;18.30;91.90;;;18.60;63.24;101731.09;5131998;28;20560;-82
2022/06/17 00:08:42;;;;;;;3.42;1.73;;;18.20;92.10;;;18.57;63.75;101727.50;5130238;29;20130;-83
2022/06/17 00:11:21;;;;;;;3.22;1.60;;;18.10;92.50;;;18.51;64.14;101728.28;5131431;29;20074;-82
2022/06/17 00:13:54;;;;;;;2.05;1.65;;;18.10;92.90;;;18.48;64.43;101730.88;5131075;29;20051;-82
2022/06/17 00:16:27;;;;;;;2.35;1.48;;;18.10;93.20;;;18.45;64.69;101725.53;5131067;29;20051;-82
2022/06/17 00:18:59;;;;;;;1.90;1.70;;;18.00;93.50;;;18.42;64.92;101741.34;5130894;29;20067;-82
2022/06/17 00:21:36;;;;;;;1.60;1.50;;;18.00;93.80;;;18.40;65.12;101737.78;5131283;29;20054;-83
2022/06/17 00:24:17;;;;;;;1.75;1.65;;;17.90;94.00;;;18.41;64.77;101742.22;5130493;29;20053;-82
2022/06/17 00:26:53;;;;;;;2.65;1.55;;;18.00;94.10;;;18.38;64.43;101736.84;5130595;29;20051;-82
2022/06/17 00:29:28;;;;;;;2.33;1.60;;;17.90;94.00;;;18.34;64.46;101740.31;5130376;29;20151;-81
2022/06/17 00:32:00;;;;;;;2.58;1.63;;;17.90;94.10;;;18.35;63.81;101736.81;5130220;29;20050;-82
2022/06/17 00:34:32;;;;;;;1.98;1.60;;;17.90;93.90;;;18.36;63.72;101741.22;5130487;29;20078;-81
2022/06/17 00:37:07;;;;;;;1.70;1.52;;;17.90;93.90;;;18.38;63.44;101739.50;5130808;29;20062;-80
2022/06/17 00:39:39;;;;;;;1.88;1.50;;;17.90;93.80;;;18.36;63.37;101734.19;5130654;29;20110;-82
2022/06/17 00:42:14;;;;;;;2.00;1.58;;;17.90;93.90;;;18.36;63.55;101730.66;5129941;29;20055;-81
2022/06/17 00:44:54;;;;;;;2.30;1.52;;;17.90;94.00;;;18.37;63.20;101727.16;5130868;29;20514;-81
2022/06/17 00:47:32;;;;;;;2.17;1.50;;;17.90;93.90;;;18.36;62.58;101720.13;5132427;29;20142;-82
2022/06/17 00:50:15;;;;;;;3.75;2.00;;;17.90;93.60;;;18.36;62.17;101728.03;5131152;29;20062;-82
2022/06/17 00:52:57;;;;;;;2.55;1.73;;;17.90;93.30;;;18.35;62.28;101728.91;5131446;29;20066;-82
2022/06/17 00:55:37;;;;;;;2.55;1.70;;;17.90;93.40;;;18.34;62.56;101721.84;5131744;29;20578;-83
2022/06/17 00:58:20;;;;;;;2.33;1.67;;;17.90;93.60;;;18.30;63.12;101720.00;5131360;29;20090;-81
2022/06/17 01:00:55;;;;;;;2.03;1.67;;;17.90;93.80;;;18.30;63.11;101723.53;5131103;29;20044;-81
2022/06/17 01:03:36;;;;;;;2.00;1.80;;;17.90;93.90;;;18.31;62.88;101727.06;5132484;29;20075;-81
2022/06/17 01:06:12;;;;;;;2.00;1.70;;;17.90;93.90;;;18.31;62.89;101725.31;5132581;29;20082;-81
2022/06/17 01:11:42;;;;;;;2.55;2.03;;;17.90;93.60;;;18.32;62.12;101729.75;5132736;29;20513;-82
2022/06/17 01:14:17;;;;;;;;;;;17.90;93.50;;;18.30;61.75;101725.28;5133560;29;20058;-81
2022/06/17 01:16:50;;;;;;;2.95;1.95;;;17.90;93.30;;;18.27;61.66;101720.84;5132586;29;19923;-80
2022/06/17 01:19:29;;;;;;;2.15;1.55;;;17.90;93.30;;;18.26;61.58;101723.47;5132837;28;20054;-82
2022/06/17 01:22:16;;;;;;;2.95;1.60;;;17.90;93.20;;;18.25;61.78;101725.19;5132276;29;20058;-80
2022/06/17 01:24:52;;;;;;;1.75;1.52;;;17.90;93.40;;;18.24;61.58;101725.16;5132596;29;20062;-82
2022/06/17 01:27:29;;;;;;;2.05;1.60;;;17.90;93.20;;;18.22;61.25;101726.91;5132787;29;20057;-82
2022/06/17 01:30:02;;;;;;;2.72;1.95;;;17.80;93.00;;;18.20;61.21;101729.53;5132261;29;20054;-81
2022/06/17 01:32:49;;;;;;;3.17;1.42;;;17.80;93.00;;;18.17;61.06;101735.59;5132976;29;20051;-81
2022/06/17 01:35:23;;;;;;;2.17;1.73;;;17.80;92.90;;;18.16;61.30;101736.47;5132686;29;20535;-82
2022/06/17 01:37:56;;;;;;;2.53;1.30;;;17.80;93.00;;;18.15;61.08;101731.19;5133184;29;20058;-80
2022/06/17 01:40:29;;;;;;;3.53;2.05;;;17.80;92.90;;;18.14;61.02;101738.19;5132898;29;20035;-81
2022/06/17 01:43:05;;;;;;;2.40;1.38;;;17.80;93.00;;;18.14;61.39;101735.56;5132515;29;20057;-81
2022/06/17 01:45:41;;;;;;;1.92;1.42;;;17.80;93.10;;;18.10;61.85;101744.28;5133234;29;20051;-82
2022/06/17 01:48:16;;;;;;;2.00;1.52;;;17.70;93.30;;;18.08;61.99;101751.28;5132635;29;20573;-80
2022/06/17 01:50:52;;;;;;;3.13;1.60;;;17.70;93.50;;;18.08;62.35;101751.28;5143037;29;20142;-80
2022/06/17 01:53:30;;;;;;;2.60;1.63;;;17.70;93.80;;;18.07;62.17;101752.16;5139661;29;20051;-85
2022/06/17 01:56:09;;;;;;;1.67;1.40;;;17.60;93.70;;;18.06;61.91;101752.09;5135071;29;20078;-83
2022/06/17 01:58:47;;;;;;;3.35;1.90;;;17.70;93.60;;;18.02;62.18;101750.28;5133318;29;20057;-84
2022/06/17 02:01:22;;;;;;;2.22;2.03;;;17.60;93.80;;;17.95;62.73;101746.63;5132741;29;20059;-83
2022/06/17 02:03:58;;;;;;;2.17;1.58;;;17.60;94.00;;;17.89;63.11;101749.13;5133251;29;20058;-82
2022/06/17 02:06:35;;;;;;;2.30;1.63;;;17.50;94.20;;;17.85;63.23;101745.53;5131858;29;20122;-85
2022/06/17 02:09:07;;;;;;;2.20;1.70;;;17.50;94.30;;;17.80;63.73;101749.84;5129099;29;20061;-81
2022/06/17 02:11:42;;;;;;;3.45;2.03;;;17.40;94.60;;;17.77;63.75;101751.53;5130925;29;20149;-81
2022/06/17 02:14:14;;;;;;;2.17;1.80;;;17.40;94.70;;;17.74;63.79;101754.13;5131079;29;20049;-82
2022/06/17 02:16:52;;;;;;;2.40;1.88;;;17.40;94.60;;;17.74;63.81;101760.28;5132158;29;20138;-81
2022/06/17 02:19:27;;;;;;;3.33;2.22;;;17.40;94.70;;;17.74;64.04;101754.13;5130215;29;20137;-80
2022/06/17 02:22:06;;;;;;;3.97;2.10;;;17.40;95.00;;;17.71;64.60;101754.91;5130083;29;20055;-82
2022/06/17 02:24:39;;;;;;;2.50;2.00;;;17.40;95.20;;;17.66;65.06;101743.34;5129735;29;20568;-80
2022/06/17 02:27:15;;;;;;;3.05;2.40;;;17.30;95.40;;;17.64;64.75;101745.97;5129504;29;20051;-80
2022/06/17 02:29:49;;;;;;;2.38;1.70;;;17.30;95.40;;;17.62;64.79;101744.16;5131206;28;20143;-80
2022/06/17 02:32:21;;;;;;;;;;;17.30;95.50;;;17.56;64.93;101734.38;5134242;29;20063;-80
2022/06/17 02:35:00;;;;;;;3.45;2.22;;;17.20;95.50;;;17.54;65.04;101735.19;5134277;29;19923;-80
2022/06/17 02:37:33;;;;;;;3.95;2.05;;;17.20;95.60;;;17.51;65.22;101740.41;5134040;29;20055;-82
2022/06/17 02:40:19;;;;;;;3.45;2.38;;;17.20;95.80;;;17.46;65.45;101747.31;5134078;29;20065;-81
2022/06/17 02:42:53;;;;;;;4.65;2.38;;;17.20;95.90;;;17.43;65.47;101756.06;5133716;29;20422;-82
2022/06/17 02:45:28;;;;;;;3.38;2.13;;;17.10;96.30;;;17.40;65.64;101753.34;5133648;29;20428;-81
2022/06/17 02:48:01;;;;;;;2.90;2.22;;;17.10;96.20;;;17.35;66.41;101755.91;5133060;29;20138;-81
2022/06/17 02:50:33;;;;;;;3.58;2.22;;;17.00;96.60;;;17.32;66.91;101762.81;5133676;29;20471;-80
2022/06/17 02:53:06;;;;;;;3.03;2.17;;;17.00;96.90;;;17.30;67.17;101769.81;5133680;29;20115;-81
2022/06/17 02:55:41;;;;;;;3.58;2.10;;;16.90;97.10;;;17.28;67.25;101771.53;5133704;29;20071;-81
2022/06/17 02:58:31;;;;;;;3.55;2.15;;;16.90;97.30;;;17.25;67.67;101768.81;5134033;29;20047;-81
2022/06/17 03:01:08;;;;;;;3.00;2.20;;;16.90;97.80;;;17.20;67.82;101765.19;5134594;29;20057;-80
2022/06/17 03:03:41;;;;;;;2.90;2.20;;;16.90;97.80;;;17.16;68.30;101771.25;5135383;29;20058;-80
2022/06/17 03:06:20;;;;;;;3.38;2.13;;;16.80;98.10;;;17.12;68.62;101774.66;5136965;29;20073;-81
2022/06/17 03:08:53;;;;;;;2.58;2.10;;;16.80;98.40;;;17.08;68.74;101771.97;5136541;29;20051;-82
2022/06/17 03:11:25;;;;;;;2.90;2.17;;;16.70;98.60;;;17.03;68.91;101778.88;5137674;29;20137;-80
2022/06/17 03:14:06;;;;;;;3.70;2.05;;;16.70;98.60;;;17.02;68.55;101785.00;5137535;29;20047;-82
2022/06/17 03:16:38;;;;;;;3.42;1.90;;;16.70;98.60;;;17.00;68.49;101783.16;5138165;29;20119;-81
2022/06/17 03:19:11;;;;;;;2.25;1.80;;;16.70;98.50;;;16.98;68.50;101785.75;5137135;29;20051;-82
2022/06/17 03:21:43;;;;;;;3.00;1.90;;;16.60;98.60;;;16.95;68.45;101782.13;5136468;29;20053;-80
2022/06/17 03:27:01;;;;;;;3.63;1.80;;;16.60;98.80;;;16.90;68.46;101783.78;5090600;29;20052;-86
2022/06/17 03:29:38;;;;;;;3.78;2.22;;;16.60;98.70;;;16.83;68.18;101790.66;5076100;29;20060;-85
2022/06/17 03:32:17;;;;;;;4.72;2.10;;;16.60;98.60;;;16.75;68.44;101787.81;5103251;29;20056;-86
2022/06/17 03:34:52;;;;;;;3.67;2.38;;;16.50;98.50;;;16.73;68.63;101796.53;5095889;29;20052;-86
2022/06/17 03:37:31;;;;;;;3.38;2.10;;;16.50;98.70;;;16.74;68.74;101790.41;5094788;29;20056;-86
2022/06/17 03:40:08;;;;;;;2.40;2.05;;;16.50;98.80;;;16.73;69.08;101786.00;5094494;29;20056;-85
2022/06/17 03:42:50;;;;;;;2.88;2.08;;;16.50;99.00;;;16.73;69.19;101796.53;5095469;29;20052;-87
2022/06/17 03:45:29;;;;;;;2.38;2.10;;;16.40;99.20;;;16.74;69.30;101795.66;5095557;29;20052;-85
2022/06/17 03:48:07;;;;;;;2.58;1.77;;;16.50;99.30;;;16.74;69.52;101791.28;5095210;29;20052;-85
2022/06/17 03:50:45;;;;;;;2.60;2.05;;;16.40;99.30;;;16.75;69.31;101792.19;5095402;29;20521;-86
2022/06/17 03:53:28;;;;;;;2.83;2.10;;;16.50;99.40;;;16.75;69.44;101797.44;5095619;29;20112;-86
2022/06/17 03:56:06;;;;;;;3.65;2.22;;;16.50;99.40;;;16.73;69.84;101800.03;5094079;29;20048;-85
2022/06/17 03:58:40;;;;;;;3.08;2.03;;;16.50;99.70;;;16.74;69.70;101806.19;5094683;29;20062;-85
2022/06/17 04:01:18;;;;;;;3.00;2.08;;;16.50;99.60;;;16.74;69.71;101816.72;5094323;29;20079;-85
2022/06/17 04:03:53;;;;;;;2.88;2.40;;;16.50;99.70;;;16.74;69.96;101822.00;5095015;29;20064;-85
2022/06/17 04:06:29;;;;;;;2.55;1.83;;;16.40;99.80;;;16.71;70.08;101814.94;5094061;29;20526;-86
2022/06/17 04:09:07;;;;;;;2.30;2.05;;;16.40;99.90;;;16.70;70.01;101814.91;5093772;29;20093;-87
2022/06/17 04:11:41;;;;;;;3.15;2.13;;;16.40;99.90;;;16.69;70.32;101818.31;5095000;29;20082;-85
2022/06/17 04:14:21;;;;;;;3.63;2.17;;;16.40;99.90;;;16.71;70.03;101816.66;5093857;29;20058;-86
2022/06/17 04:17:04;;;;;;;3.78;2.17;;;16.40;99.90;;;16.72;70.16;101818.44;5093596;29;20082;-87
2022/06/17 04:19:37;;;;;;;2.42;2.13;;;16.40;99.90;;;16.75;70.05;101818.50;5082480;29;20063;-85
2022/06/17 04:22:17;;;;;;;3.13;2.13;;;16.40;99.90;;;16.76;70.06;101820.31;5092932;29;20054;-86
2022/06/17 04:24:59;;;;;;;3.03;1.83;;;16.40;99.90;;;16.76;70.08;101818.56;5094269;29;20044;-85
2022/06/17 04:27:56;;;;;;;3.67;2.20;;;16.40;99.90;;;16.75;69.60;101816.75;5094254;29;20116;-85
2022/06/17 04:30:27;;;;;;;2.42;2.17;;;16.40;99.90;;;16.66;69.57;101810.34;5093600;29;20529;-85
2022/06/17 04:33:07;;;;;;;3.45;2.15;;;16.40;99.80;;;16.62;69.94;101816.38;5094250;29;20052;-86
2022/06/17 04:35:39;;;;;;;2.45;1.88;;;16.40;99.90;;;16.67;70.04;101830.56;5093473;29;20062;-85
2022/06/17 04:38:11;;;;;;;3.10;2.13;;;16.40;99.90;;;16.71;69.80;101817.56;5093569;29;20048;-86
2022/06/17 04:40:48;;;;;;;3.50;2.00;;;16.50;99.90;;;16.79;69.76;101825.66;5093260;29;20484;-87
2022/06/17 04:43:29;;;;;;;2.03;1.83;;;16.50;99.90;;;16.86;69.79;101819.69;5093908;29;20143;-86
2022/06/17 04:46:07;;;;;;;3.40;2.45;;;16.60;99.90;;;16.94;69.74;101831.28;5093226;29;20056;-88
2022/06/17 04:48:41;;;;;;;3.08;2.35;;;16.60;99.90;;;17.07;69.51;101833.38;5093715;29;20055;-87
2022/06/17 04:51:13;;;;;;;3.72;2.30;;;16.80;99.90;;;17.30;69.44;101840.97;5094088;29;20080;-85
2022/06/17 04:53:46;;;;;;;3.47;2.70;;;16.90;99.90;;;17.68;68.82;101833.94;5093823;29;20078;-86
2022/06/17 04:56:27;;;;;;;4.43;2.40;;;17.30;99.90;;;18.05;66.89;101830.34;5094544;29;20066;-85
2022/06/17 04:58:59;;;;;;;3.90;2.20;;;17.60;99.00;;;18.45;65.31;101836.41;5095662;29;20063;-85
2022/06/17 05:01:32;;;;;;;3.53;2.17;;;18.00;98.30;;;18.65;63.38;101829.78;5095590;29;20058;-86
2022/06/17 05:04:06;;;;;;;3.40;2.20;;;18.30;97.20;;;18.69;62.61;101823.72;5095072;29;20430;-88
2022/06/17 05:06:38;;;;;;;3.53;2.30;;;18.40;96.50;;;18.69;62.45;101830.75;5092175;29;20052;-88
2022/06/17 05:09:17;;;;;;;3.60;2.17;;;18.50;96.10;;;18.74;62.42;101831.72;5093353;29;20052;-87
2022/06/17 05:11:53;;;;;;;3.17;2.22;;;18.50;95.90;;;18.93;62.01;101831.19;5097831;29;20142;-87
2022/06/17 05:14:33;;;;;;;3.33;2.30;;;18.70;95.70;;;19.14;61.58;101841.22;5103175;29;20509;-86
2022/06/17 05:17:05;;;;;;;3.25;2.03;;;18.90;95.50;;;19.41;60.51;101845.16;5094574;29;20112;-85
2022/06/17 05:19:39;;;;;;;3.13;2.30;;;19.00;95.00;;;19.66;59.44;101839.38;5091257;29;20055;-87
2022/06/17 05:22:16;;;;;;;3.85;2.38;;;19.20;94.50;;;19.88;58.39;101847.59;5089792;29;20139;-88
2022/06/17 05:24:49;;;;;;;2.90;1.92;;;19.40;94.00;;;19.87;58.10;101853.78;5089305;29;20056;-87
2022/06/17 05:27:21;;;;;;;2.60;2.00;;;19.40;93.50;;;19.86;58.11;101846.72;5089866;29;20460;-89
2022/06/17 05:29:53;;;;;;;4.30;1.95;;;19.50;93.40;;;19.96;58.11;101840.69;5090402;29;20058;-88
2022/06/17 05:32:25;;;;;;;4.28;2.00;;;19.60;93.30;;;20.00;57.96;101837.19;5089658;29;20049;-88
2022/06/17 05:34:58;;;;;;;3.00;1.90;;;19.70;93.20;;;20.00;57.97;101839.84;5090361;29;20632;-88
2022/06/17 05:37:30;;;;;;;3.45;2.10;;;19.70;93.00;;;20.06;57.61;101837.25;5089122;29;20056;-87
2022/06/17 05:40:03;;;;;;;2.67;1.98;;;19.70;92.80;;;20.19;56.88;101839.19;5089966;29;20058;-88
2022/06/17 05:42:35;;;;;;;3.60;1.88;;;19.80;92.80;;;20.29;56.19;101830.50;5089563;29;20052;-87
2022/06/17 05:45:11;;;;;;;4.55;2.00;;;19.80;92.10;;;20.33;55.85;101827.00;5088680;29;20331;-86
2022/06/17 05:47:43;;;;;;;3.55;2.05;;;19.90;91.80;;;20.40;55.58;101832.34;5089039;29;20052;-87
2022/06/17 05:50:18;;;;;;;2.80;2.00;;;20.00;91.50;;;20.50;55.09;101823.69;5089018;29;20056;-87
2022/06/17 05:52:52;;;;;;;4.43;1.80;;;20.00;91.30;;;20.59;54.66;101834.34;5088671;29;20044;-86
2022/06/17 05:55:27;;;;;;;3.88;2.15;;;20.10;90.90;;;20.70;54.35;101827.41;5088851;29;20056;-87
2022/06/17 05:57:59;;;;;;;3.75;2.10;;;20.20;90.80;;;20.78;54.38;101833.66;5088933;29;20062;-83
2022/06/17 06:00:33;;;;;;;5.13;1.90;;;20.30;90.70;;;20.71;54.29;101826.53;5088665;29;20056;-84
2022/06/17 06:03:08;;;;;;;3.83;1.83;;;20.30;90.40;;;20.70;54.58;101831.81;5088679;29;20048;-84
2022/06/17 06:05:41;;;;;;;2.33;1.70;;;20.30;90.80;;;20.77;54.18;101829.25;5088987;29;20062;-83
2022/06/17 06:08:13;;;;;;;4.05;1.80;;;20.30;90.40;;;20.90;54.20;101830.25;5090818;29;20052;-82
2022/06/17 06:10:46;;;;;;;3.35;1.92;;;20.40;90.30;;;21.21;53.90;101826.09;5091680;29;20138;-85
2022/06/17 06:13:20;;;;;;;3.40;1.90;;;20.60;90.40;;;21.40;52.54;101819.19;5091475;29;20064;-85
2022/06/17 06:15:55;;;;;;;3.40;1.80;;;20.80;89.40;;;21.40;52.00;101809.44;5092056;29;20515;-85
2022/06/17 06:18:32;;;;;;;3.20;1.98;;;20.80;88.30;;;21.46;51.86;101815.69;5092171;29;20681;-88
2022/06/17 06:21:05;;;;;;;1.98;1.65;;;20.90;87.80;;;21.47;51.58;101812.16;5092042;29;20141;-83
2022/06/17 06:23:40;;;;;;;4.20;2.10;;;20.90;87.20;;;21.46;51.58;101805.06;5090948;29;20108;-85
2022/06/17 06:26:16;;;;;;;1.80;1.33;;;20.90;87.10;;;21.31;51.92;101800.53;5092271;29;20066;-84
2022/06/17 06:28:48;;;;;;;2.13;1.60;;;20.80;86.80;;;21.12;52.39;101805.66;5092166;29;20052;-86
2022/06/17 06:31:25;;;;;;;1.88;1.63;;;20.70;87.00;;;20.93;52.70;101795.81;5094063;29;20054;-86
2022/06/17 06:33:57;;;;;;;2.08;1.70;;;20.60;86.90;;;20.79;53.07;101790.38;5091839;29;20131;-84
2022/06/17 06:36:31;;;;;;;2.58;1.63;;;20.50;87.20;;;20.65;53.35;101785.84;5074911;29;20052;-85
2022/06/17 06:39:03;;;;;;;3.58;2.00;;;20.40;87.50;;;20.64;53.84;101784.06;5055010;29;20063;-91
2022/06/17 06:41:35;;;;;;;4.03;1.90;;;20.30;88.10;;;20.70;53.86;101785.03;5055167;29;20147;-89
2022/06/17 06:44:08;;;;;;;2.78;1.67;;;20.30;88.50;;;20.66;54.19;101783.19;5067420;29;20052;-90
2022/06/17 06:46:40;;;;;;;2.47;1.88;;;20.30;88.60;;;20.58;54.37;101780.50;5066884;29;20053;-88
2022/06/17 06:49:12;;;;;;;2.63;1.50;;;20.20;88.90;;;20.60;54.83;101788.44;5067264;29;20487;-85
2022/06/17 06:51:45;;;;;;;2.53;1.63;;;20.20;89.50;;;20.74;54.93;101783.31;5069515;29;20055;-90
2022/06/17 06:54:17;;;;;;;3.05;1.45;;;20.30;89.80;;;21.06;54.74;101778.22;5067397;29;20075;-89
2022/06/17 06:56:49;;;;;;;2.95;1.70;;;20.50;90.00;;;21.26;53.76;101781.94;5069473;29;20048;-85
2022/06/17 06:59:21;;;;;;;2.65;1.75;;;20.70;89.20;;;21.45;53.81;101788.22;5067655;29;20055;-87
2022/06/17 07:01:53;;;;;;;2.60;1.27;;;20.90;89.30;;;21.72;53.92;101803.44;5068006;29;20055;-88
2022/06/17 07:04:25;;;;;;;2.53;1.70;;;21.10;89.70;;;22.05;53.18;101801.81;5067878;29;20438;-87
2022/06/17 07:06:58;;;;;;;4.90;1.90;;;21.30;89.20;;;22.31;51.09;101802.81;5070165;29;20065;-84
2022/06/17 07:09:31;;;;;;;4.35;1.77;;;21.60;86.40;;;22.50;50.21;101800.19;5090282;29;20052;-84
2022/06/17 07:12:03;;;;;;;3.17;1.70;;;21.70;85.20;;;22.62;49.84;101794.84;5085573;29;20041;-84
2022/06/17 07:14:35;;;;;;;2.63;1.70;;;21.90;84.60;;;22.83;49.58;101791.34;5081607;29;20059;-85
2022/06/17 07:17:08;;;;;;;3.42;1.58;;;22.10;84.00;;;23.13;49.50;101798.44;5092607;29;20052;-83
2022/06/17 07:19:41;;;;;;;4.82;1.67;;;22.30;84.10;;;23.44;49.17;101793.97;5098323;29;20055;-84
2022/06/17 07:22:14;;;;;;;2.38;1.40;;;22.60;83.60;;;23.76;47.75;101788.56;5091381;29;20486;-83
2022/06/17 07:24:46;;;;;;;3.08;1.70;;;22.80;82.30;;;23.94;46.33;101790.28;5077372;29;20508;-83
2022/06/17 07:27:18;;;;;;;4.07;1.63;;;23.00;79.80;;;23.98;45.38;101782.25;5093090;29;20054;-82
2022/06/17 07:29:50;;;;;;;2.28;1.42;;;23.10;78.00;;;24.17;45.36;101792.81;5094667;29;20056;-83
2022/06/17 07:32:22;;;;;;;1.52;1.33;;;23.30;77.90;;;24.40;44.97;101788.25;5094178;29;20063;-84
2022/06/17 07:34:54;;;;;;;3.53;1.60;;;23.50;77.40;;;24.65;44.79;101786.31;5094804;29;20048;-83
2022/06/17 07:40:17;;;;;;;3.17;1.63;;;23.80;74.60;;;24.97;43.98;101793.13;5089584;29;20048;-84
2022/06/17 07:42:49;;;;;;;4.38;1.50;;;24.00;75.00;;;24.97;42.91;101788.69;5095319;29;20045;-81
2022/06/17 07:45:23;;;;;;;2.38;1.63;;;24.10;73.20;;;25.12;42.90;101791.25;5082343;29;20056;-87
2022/06/17 07:56:19;;;;;;;2.25;1.70;;;24.40;71.20;;;25.14;42.70;101796.56;5761196;23;20107;-82
2022/06/17 07:58:51;;;;;;;2.20;1.70;;;24.30;71.90;;;25.59;42.55;101797.88;5104798;29;20051;-86
2022/06/17 08:01:23;;;;;;;2.08;1.52;;;24.50;72.70;;;26.08;41.93;101799.97;5111322;29;20051;-86
2022/06/17 08:03:55;;;;;;;2.17;1.60;;;24.80;71.90;;;26.46;40.56;101803.91;5113869;29;20050;-84
2022/06/17 08:06:28;;;;;;;3.47;1.60;;;25.10;70.30;;;26.49;39.88;101795.84;5105794;29;20115;-85
2022/06/17 08:08:59;;;;;;;3.03;1.33;;;25.20;69.00;;;26.77;39.68;101807.84;5095771;29;20529;-84
2022/06/17 08:11:33;;;;;;;2.45;1.70;;;25.40;68.90;;;27.09;39.11;101810.94;5095963;29;20394;-86
2022/06/17 08:14:05;;;;;;;2.78;1.50;;;25.60;68.30;;;27.64;38.57;101813.44;5279191;23;20135;-72
2022/06/17 08:16:38;;;;;;;2.33;1.40;;;25.90;68.10;;;28.36;37.30;101815.56;5083742;29;20056;-72
2022/06/17 08:19:10;;;;;;;3.22;1.23;;;26.30;67.00;;;29.13;36.29;101814.53;5077843;29;20494;-72
2022/06/17 08:21:42;;;;;;;2.75;1.40;;;26.80;66.20;;;29.95;35.53;101821.25;5084565;29;20059;-72
2022/06/17 08:24:14;;;;;;;5.47;1.60;;;27.30;65.90;;;30.59;34.31;101824.66;5082421;29;20048;-72
2022/06/17 08:26:47;;;;;;;2.00;1.35;;;27.80;64.30;;;31.21;33.29;101812.72;5079259;29;20127;-72
2022/06/17 08:29:20;;;;;;;4.00;1.58;;;28.20;63.20;;;31.74;32.03;101807.22;5074102;29;20052;-72
2022/06/17 08:31:52;;;;;;;2.40;1.60;;;28.50;61.90;;;32.26;30.67;101816.03;5086624;29;20044;-72
2022/06/17 08:34:24;;;;;;;1.95;1.38;;;28.80;60.00;;;33.05;29.80;101811.91;5082211;29;20067;-72
2022/06/17 08:36:56;;;;;;;3.05;1.13;;;29.20;59.50;;;34.00;28.65;101812.13;5083680;29;20045;-72
2022/06/17 08:39:32;;;;;;;1.55;1.30;;;29.80;58.50;;;34.50;26.82;101792.59;5086544;29;20055;-73
2022/06/17 08:42:21;;;;;;;2.50;1.15;;;30.30;56.10;;;34.49;26.75;101789.94;5087188;29;20520;-73
2022/06/17 08:45:00;;;;;;;1.40;1.23;;;30.60;54.70;;;35.12;25.97;101784.94;5086987;29;20100;-73
2022/06/17 08:47:51;;;;;;;2.17;1.20;;;31.10;54.50;;;35.42;24.88;101784.31;5085474;29;20056;-72
2022/06/17 08:50:50;;;;;;;2.42;1.13;;;31.70;52.20;;;34.70;24.83;101780.75;5087042;29;20059;-73
2022/06/17 08:54:06;;;;;;;4.55;1.00;;;31.60;50.70;;;34.40;25.35;101782.25;5084800;29;20459;-72
2022/06/17 08:56:47;;;;;;;2.17;1.20;;;31.50;50.70;;;34.87;24.89;101781.72;5078143;29;20053;-73
2022/06/17 08:59:37;;;;;;;1.67;1.23;;;31.70;50.80;;;35.02;23.90;101786.38;5086149;29;20059;-73
2022/06/17 09:02:20;;;;;;;3.00;1.40;;;31.80;49.30;;;34.49;24.60;101782.69;5079362;29;20048;-71
2022/06/17 09:05:12;;;;;;;1.48;1.30;;;31.60;49.50;;;34.57;24.99;101771.50;5067207;29;20045;-71
2022/06/17 09:08:01;;;;;;;1.80;1.10;;;31.60;49.60;;;34.41;25.08;101767.75;5066703;29;20391;-72
2022/06/17 09:10:50;;;;;;;1.85;1.20;;;31.60;49.60;;;34.40;25.33;101768.72;5067157;29;20052;-73
2022/06/17 09:13:37;;;;;;;1.88;1.00;;;31.60;50.00;;;35.07;24.92;101771.63;5067421;29;20052;-72
2022/06/17 09:16:22;;;;;;;1.45;1.00;;;31.90;50.10;;;35.93;23.76;101763.41;5066921;29;20482;-71
2022/06/17 09:19:00;;;;;;;1.60;0.95;;;32.50;49.30;;;35.35;23.72;101752.06;5066760;29;20061;-72
2022/06/17 09:21:37;;;;;;;1.90;1.10;;;32.30;48.50;;;34.77;25.34;101763.25;5066834;29;20052;-70
2022/06/17 09:24:16;;;;;;;3.80;1.27;;;32.10;49.20;;;34.14;25.42;101751.94;5066690;29;20141;-72
2022/06/17 09:26:57;;;;;;;1.80;1.13;;;31.80;49.50;;;33.22;26.31;101748.09;5066595;29;20052;-71
2022/06/17 09:29:35;;;;;;;2.63;1.27;;;31.20;49.50;;;32.72;27.44;101744.00;5080952;29;20051;-70
2022/06/17 09:32:16;;;;;;;1.52;1.13;;;30.90;50.50;;;32.51;27.50;101745.78;5078052;29;20048;-72
2022/06/17 09:34:56;;;;;;;2.53;1.17;;;30.70;50.60;;;32.20;27.81;101744.31;5081013;29;20052;-72
2022/06/17 09:37:37;;;;;;;2.50;1.30;;;30.50;50.80;;;31.74;28.30;101737.13;5078546;29;20062;-71
2022/06/17 09:40:17;;;;;;;1.20;1.05;;;30.20;50.90;;;31.49;29.21;101737.19;5086036;29;20058;-72
2022/06/17 09:42:57;;;;;;;2.67;1.25;;;30.10;51.70;;;31.24;29.24;101745.34;5085666;29;20044;-72
2022/06/17 09:45:34;;;;;;;1.50;1.10;;;29.90;51.70;;;30.94;29.45;101748.13;5075609;29;20053;-72
2022/06/17 09:48:14;;;;;;;1.52;1.30;;;29.80;51.60;;;30.79;29.28;101735.22;5072058;29;20056;-73
2022/06/17 09:50:51;;;;;;;3.50;1.40;;;29.60;51.00;;;30.52;29.70;101729.81;5066470;29;20059;-72
2022/06/17 09:53:30;;;;;;;1.88;1.20;;;29.50;51.30;;;30.53;31.17;101736.97;5066246;29;20141;-73
2022/06/17 09:56:10;;;;;;;2.35;1.20;;;29.40;53.60;;;30.61;30.33;101736.69;5066385;29;20057;-72
2022/06/17 09:58:49;;;;;;;2.85;1.25;;;29.50;52.60;;;30.62;30.15;101742.94;5066562;29;20131;-72
2022/06/17 10:01:21;;;;;;;2.08;1.30;;;29.50;52.90;;;30.56;30.19;101740.47;5066339;29;20135;-72
2022/06/17 10:03:54;;;;;;;2.10;1.30;;;29.50;52.00;;;30.59;30.76;101737.69;5065949;29;20062;-73
2022/06/17 10:06:37;;;;;;;2.35;1.25;;;29.50;52.90;;;30.70;30.74;101740.91;5071261;29;20059;-65
2022/06/17 10:09:27;;;;;;;1.98;1.20;;;29.50;52.70;;;30.74;30.21;101737.19;5085961;29;20056;-71
2022/06/17 10:12:09;;;;;;;2.17;1.30;;;29.60;52.50;;;30.79;30.56;101732.53;5085801;29;20056;-70
2022/06/17 10:15:09;;;;;;;1.65;1.15;;;29.60;52.60;;;30.82;30.46;101724.34;5085750;29;20048;-71
2022/06/17 10:21:11;;;;;;;1.50;1.27;;;29.80;52.50;;;31.11;29.57;101711.66;5066012;29;20139;-70
2022/06/17 10:24:00;;;;;;;1.50;1.13;;;29.80;51.40;;;31.24;29.11;101704.94;5078554;29;20048;-71
2022/06/17 10:26:46;;;;;;;2.33;1.30;;;30.00;51.20;;;31.29;28.90;101706.50;5077134;29;20045;-70
2022/06/17 10:29:42;;;;;;;1.23;1.13;;;30.00;51.00;;;31.35;29.94;101708.09;5085433;29;20059;-71
2022/06/17 10:32:14;;;;;;;2.85;1.30;;;30.10;51.90;;;31.43;29.11;101705.09;5085092;29;20059;-72
2022/06/17 10:34:54;;;;;;;2.20;1.30;;;30.20;51.30;;;31.23;28.20;101693.25;5085298;29;20082;-72
2022/06/17 10:37:28;;;;;;;2.42;1.10;;;30.10;50.10;;;31.12;28.13;101683.81;5085062;29;20417;-72
2022/06/17 10:40:01;;;;;;;2.53;1.10;;;30.00;49.70;;;30.92;27.31;101682.72;5080132;29;20062;-72
2022/06/17 10:42:33;;;;;;;2.13;1.15;;;29.90;48.80;;;30.88;27.72;101690.94;5081133;29;20059;-71
2022/06/17 10:45:14;;;;;;;2.10;1.33;;;29.80;48.90;;;30.63;28.92;101690.88;5083141;29;20051;-73
2022/06/17 10:47:53;;;;;;;1.88;1.33;;;29.70;50.30;;;30.34;29.45;101699.97;5073796;29;20059;-71
2022/06/17 10:50:28;;;;;;;1.13;0.98;;;29.50;50.80;;;30.41;30.36;101707.78;5065604;29;20060;-70
2022/06/17 10:53:11;;;;;;;1.50;1.20;;;29.40;51.50;;;30.62;29.83;101699.91;5069181;29;20052;-71
2022/06/17 10:55:47;;;;;;;1.90;1.00;;;29.50;51.60;;;30.73;28.14;101703.16;5069771;29;20148;-59
2022/06/17 10:58:22;;;;;;;3.00;0.98;;;29.60;49.30;;;30.88;26.75;101702.59;5069882;29;20418;-73
2022/06/17 11:01:01;;;;;;;2.72;1.70;;;29.70;48.20;;;31.04;26.53;101694.88;5069821;29;20076;-73
2022/06/17 11:03:37;;;;;;;10.90;4.32;;;29.80;47.80;;;31.25;26.42;101698.59;5069792;29;20566;-70
2022/06/17 11:06:17;;;;;;;37.78;13.07;;;30.00;47.90;;;31.40;26.23;101698.00;5069493;29;20056;-71
2022/06/17 11:08:56;;;;;;;;;;;30.20;47.40;;;31.57;26.39;101708.16;5069724;29;20064;-70
2022/06/17 11:14:31;;;;;;;8.27;3.30;;;30.50;47.40;;;31.81;24.98;101706.34;5069431;29;20080;-73